Time;durP1;ratioP1;P1;durP2;ratioP2;P2;SDS_P1;SDS_P2;PMS_P1;PMS_P2;Temp;Humidity;BMP_temperature;BMP_pressure;BME280_temperature;BME280_humidity;BME280_pressure;Samples;Min_cycle;Max_cycle;Signal;HPM_P1;HPM_P2
2022/09/18 00:00:43;;;;;;;14.90;2.80;;;;;;;;;;5083559;28;20769;-78
2022/09/18 00:03:10;;;;;;;13.30;2.78;;;;;;;;;;5107061;27;20414;-78
2022/09/18 00:05:37;;;;;;;15.88;2.60;;;;;;;;;;5098347;27;20886;-79
2022/09/18 00:08:03;;;;;;;16.70;2.70;;;;;;;;;;5112160;27;20949;-79
2022/09/18 00:10:29;;;;;;;16.65;2.70;;;;;;;;;;5099574;28;20420;-79
2022/09/18 00:12:55;;;;;;;19.42;3.05;;;;;;;;;;5090548;28;20488;-79
2022/09/18 00:15:22;;;;;;;17.45;3.25;;;;;;;;;;5093680;28;20439;-79
2022/09/18 00:17:48;;;;;;;13.10;2.33;;;;;;;;;;5105175;27;20452;-78
2022/09/18 00:20:14;;;;;;;14.75;2.80;;;;;;;;;;5095484;27;20442;-79
2022/09/18 00:22:40;;;;;;;17.90;3.13;;;;;;;;;;5091619;28;20448;-78
2022/09/18 00:25:07;;;;;;;14.67;2.30;;;;;;;;;;5110924;28;21015;-78
2022/09/18 00:27:33;;;;;;;19.15;3.08;;;;;;;;;;5084463;28;20941;-79
2022/09/18 00:29:59;;;;;;;17.73;2.78;;;;;;;;;;5061856;28;20455;-79
2022/09/18 00:32:25;;;;;;;16.33;3.40;;;;;;;;;;5093807;28;20495;-78
2022/09/18 00:34:51;;;;;;;15.32;3.28;;;;;;;;;;5102356;28;20416;-78
2022/09/18 00:37:17;;;;;;;17.77;3.00;;;;;;;;;;5108554;28;20412;-79
2022/09/18 00:39:43;;;;;;;16.07;2.97;;;;;;;;;;5079568;28;20425;-78
2022/09/18 00:42:12;;;;;;;16.95;2.60;;;;;;;;;;5111001;28;20400;-78
2022/09/18 00:44:41;;;;;;;18.23;3.17;;;9.90;99.90;;;;;;5093730;28;20404;-78
2022/09/18 00:47:07;;;;;;;20.08;3.17;;;;;;;;;;5084238;28;21004;-78
2022/09/18 00:49:33;;;;;;;16.38;2.97;;;;;;;;;;5109554;28;20916;-79
2022/09/18 00:52:00;;;;;;;16.45;3.40;;;9.50;99.90;;;;;;5096175;28;20426;-79
2022/09/18 00:54:33;;;;;;;16.05;2.85;;;;;;;;;;5097585;28;20416;-79
2022/09/18 00:57:03;;;;;;;14.20;2.60;;;9.90;99.90;;;;;;5110459;28;20408;-78
2022/09/18 00:59:30;;;;;;;16.88;2.65;;;;;;;;;;5093897;28;20422;-78
2022/09/18 01:01:57;;;;;;;15.50;2.67;;;;;;;;;;5105210;28;20420;-73
2022/09/18 01:04:23;;;;;;;16.60;2.60;;;;;;;;;;5110598;28;20408;-73
2022/09/18 01:07:08;;;;;;;14.80;2.83;;;9.90;99.90;;;;;;5098595;28;20466;-73
2022/09/18 01:09:42;;;;;;;14.82;2.92;;;;;;;;;;5088770;28;20433;-73
2022/09/18 01:12:27;;;;;;;14.38;2.85;;;9.90;99.90;;;;;;5108545;28;20923;-73
2022/09/18 01:14:53;;;;;;;16.50;2.50;;;;;;;;;;5100316;28;20574;-73
2022/09/18 01:17:19;;;;;;;14.57;2.58;;;;;;;;;;5105460;28;20768;-73
2022/09/18 01:20:03;;;;;;;14.77;2.42;;;;;;;;;;5085016;28;20423;-73
2022/09/18 01:23:23;;;;;;;18.73;2.90;;;10.00;99.90;;;;;;5075528;28;20433;-73
2022/09/18 01:26:05;;;;;;;16.75;3.08;;;;;;;;;;5012313;28;20433;-74
2022/09/18 01:28:48;;;;;;;12.02;2.25;;;10.10;99.90;;;;;;5083724;28;20425;-73
2022/09/18 01:31:48;;;;;;;14.00;2.30;;;10.10;99.90;;;;;;5071500;28;20429;-73
2022/09/18 01:34:20;;;;;;;17.40;3.23;;;;;;;;;;5063696;28;20567;-73
2022/09/18 01:36:49;;;;;;;13.90;2.63;;;;;;;;;;5071138;28;20428;-73
2022/09/18 01:39:51;;;;;;;12.20;2.38;;;10.00;99.90;;;;;;5060111;28;20405;-73
2022/09/18 01:42:19;;;;;;;11.60;2.45;;;9.90;99.90;;;;;;5075728;28;20421;-74
2022/09/18 01:44:47;;;;;;;17.95;2.35;;;10.00;99.90;;;;;;5067358;28;20510;-73
2022/09/18 01:47:16;;;;;;;11.80;2.43;;;10.00;99.90;;;;;;5076740;28;20480;-73
2022/09/18 01:49:44;;;;;;;14.63;2.63;;;;;;;;;;5075459;28;20433;-73
2022/09/18 01:52:32;;;;;;;14.23;2.05;;;10.00;99.90;;;;;;5056162;28;20420;-73
2022/09/18 01:55:01;;;;;;;15.23;2.72;;;;;;;;;;5039870;28;20403;-73
2022/09/18 01:57:32;;;;;;;10.82;2.10;;;;;;;;;;5056615;28;20415;-73
2022/09/18 02:00:07;;;;;;;15.95;2.20;;;10.00;99.90;;;;;;5062987;28;20918;-74
2022/09/18 02:02:40;;;;;;;10.77;2.40;;;;;;;;;;5063098;28;20425;-73
2022/09/18 02:05:10;;;;;;;11.13;2.35;;;10.10;99.90;;;;;;5060849;28;20423;-73
2022/09/18 02:07:54;;;;;;;10.02;1.95;;;;;;;;;;5039061;28;20412;-73
2022/09/18 02:10:21;;;;;;;10.13;2.25;;;;;;;;;;5056357;28;20439;-73
2022/09/18 02:12:48;;;;;;;14.98;2.20;;;;;;;;;;5055298;28;20458;-74
2022/09/18 02:15:14;;;;;;;8.37;1.70;;;10.10;99.90;;;;;;5056228;28;20439;-73
2022/09/18 02:17:57;;;;;;;13.37;2.30;;;10.10;99.90;;;;;;5039835;28;20416;-73
2022/09/18 02:20:27;;;;;;;9.35;1.83;;;;;;;;;;5068370;28;20428;-73
2022/09/18 02:22:56;;;;;;;13.00;2.38;;;;;;;;;;5060486;28;20444;-73
2022/09/18 02:25:28;;;;;;;8.27;1.83;;;10.30;99.90;;;;;;5072558;28;20410;-73
2022/09/18 02:27:54;;;;;;;12.52;2.40;;;10.20;99.90;;;;;;5081061;28;20440;-78
2022/09/18 02:30:21;;;;;;;13.23;2.67;;;;;;;;;;5082506;27;20418;-79
2022/09/18 02:32:47;;;;;;;10.27;2.20;;;;;;;;;;5110902;28;20415;-79
2022/09/18 02:35:14;;;;;;;10.75;2.10;;;10.40;99.90;;;;;;5094880;28;20392;-78
2022/09/18 02:37:43;;;;;;;11.70;2.60;;;;;;;;;;5094031;28;20477;-78
2022/09/18 02:41:10;;;;;;;11.75;2.25;;;10.40;99.90;;;;;;5075688;27;20472;-78
2022/09/18 02:43:42;;;;;;;11.43;2.25;;;10.40;99.90;;;;;;5009868;28;20462;-79
2022/09/18 02:46:22;;;;;;;11.82;2.22;;;;;;;;;;5090586;27;20422;-76
2022/09/18 02:49:13;;;;;;;17.42;2.10;;;;;;;;;;5089238;28;20430;-73
2022/09/18 02:51:39;;;;;;;10.52;2.13;;;;;;;;;;5100350;27;20414;-72
2022/09/18 02:54:13;;;;;;;10.50;2.13;;;;;;;;;;5133633;27;20407;-72
2022/09/18 02:56:45;;;;;;;13.48;2.10;;;;;;;;;;5105020;28;20850;-73
2022/09/18 02:59:11;;;;;;;10.75;1.90;;;;;;;;;;5082026;27;20422;-73
2022/09/18 03:01:41;;;;;;;12.40;2.25;;;10.70;99.90;;;;;;5111163;27;20425;-79
2022/09/18 03:04:12;;;;;;;10.73;2.00;;;10.50;99.90;;;;;;5078795;28;20501;-79
2022/09/18 03:06:38;;;;;;;14.57;2.53;;;;;;;;;;5075452;28;20405;-79
2022/09/18 03:09:04;;;;;;;9.48;1.50;;;;;;;;;;5062761;27;20432;-79
2022/09/18 03:11:30;;;;;;;9.52;1.83;;;;;;;;;;5081615;28;20418;-78
2022/09/18 03:13:56;;;;;;;14.45;2.05;;;;;;;;;;5091820;28;20394;-78
2022/09/18 03:16:22;;;;;;;10.07;1.70;;;;;;;;;;5081334;27;20509;-78
2022/09/18 03:18:48;;;;;;;13.65;2.58;;;;;;;;;;5077234;28;20413;-73
2022/09/18 03:21:15;;;;;;;9.15;1.70;;;;;;;;;;5090860;27;20415;-73
2022/09/18 03:23:41;;;;;;;9.00;1.80;;;;;;;;;;5112837;27;20482;-73
2022/09/18 03:26:07;;;;;;;10.23;2.07;;;;;;;;;;5101177;28;20498;-73
2022/09/18 03:28:33;;;;;;;13.30;2.20;;;;;;;;;;5094873;28;20500;-73
2022/09/18 03:30:59;;;;;;;10.40;1.92;;;;;;;;;;5112198;27;20422;-73
2022/09/18 03:33:25;;;;;;;9.77;2.05;;;;;;;;;;5096657;28;20427;-73
2022/09/18 03:35:51;;;;;;;10.25;1.90;;;;;;;;;;5086874;28;20425;-73
2022/09/18 03:38:17;;;;;;;9.90;1.85;;;;;;;;;;5096585;27;20410;-73
2022/09/18 03:40:44;;;;;;;9.30;1.95;;;10.40;99.90;;;;;;5113084;27;20835;-73
2022/09/18 03:43:10;;;;;;;12.52;2.20;;;;;;;;;;5106329;27;20822;-73
2022/09/18 03:45:37;;;;;;;10.40;1.88;;;;;;;;;;5094647;27;20420;-73
2022/09/18 03:48:03;;;;;;;12.40;2.30;;;;;;;;;;5115250;27;20792;-73
2022/09/18 03:50:29;;;;;;;11.75;1.80;;;;;;;;;;5112860;27;20822;-73
2022/09/18 03:52:56;;;;;;;11.40;2.10;;;;;;;;;;5084458;27;20758;-73
2022/09/18 03:55:22;;;;;;;9.93;1.75;;;;;;;;;;5114959;27;20871;-73
2022/09/18 03:57:49;;;;;;;12.93;1.88;;;;;;;;;;5084169;28;20474;-73
2022/09/18 04:00:15;;;;;;;7.00;1.55;;;;;;;;;;5063950;28;20425;-74
2022/09/18 04:02:42;;;;;;;11.25;2.05;;;10.20;99.90;;;;;;5111911;27;20414;-73
2022/09/18 04:05:08;;;;;;;5.65;1.60;;;;;;;;;;5115214;27;20399;-73
2022/09/18 04:07:34;;;;;;;10.45;1.95;;;;;;;;;;5109537;27;20552;-73
2022/09/18 04:10:00;;;;;;;10.63;2.00;;;;;;;;;;5114606;27;20425;-73
2022/09/18 04:12:27;;;;;;;6.43;1.60;;;;;;;;;;5079178;27;20901;-73
2022/09/18 04:14:55;;;;;;;9.60;2.05;;;;;;;;;;5100949;27;20437;-73
2022/09/18 04:17:21;;;;;;;7.75;1.23;;;;;;;;;;5097561;27;20395;-73
2022/09/18 04:19:47;;;;;;;7.15;1.55;;;;;;;;;;5098808;28;20416;-73
2022/09/18 04:22:14;;;;;;;9.85;1.67;;;;;;;;;;5111736;27;20422;-73
2022/09/18 04:24:40;;;;;;;9.55;1.70;;;;;;;;;;5105965;28;20440;-73
2022/09/18 04:27:06;;;;;;;10.27;1.80;;;10.00;99.90;;;;;;5092954;27;20702;-73
2022/09/18 04:29:32;;;;;;;8.98;1.50;;;;;;;;;;5076027;27;20805;-72
2022/09/18 04:31:58;;;;;;;7.28;1.50;;;;;;;;;;5099607;28;20445;-73
2022/09/18 04:34:24;;;;;;;6.95;1.42;;;;;;;;;;5091730;27;20475;-73
2022/09/18 04:36:50;;;;;;;12.90;1.55;;;;;;;;;;5112693;27;20423;-73
2022/09/18 04:39:16;;;;;;;8.75;1.67;;;;;;;;;;5088925;28;20827;-73
2022/09/18 04:41:44;;;;;;;7.93;1.90;;;;;;;;;;5091370;27;20417;-73
2022/09/18 04:44:11;;;;;;;9.95;2.10;;;;;;;;;;5113397;27;20425;-73
2022/09/18 04:46:37;;;;;;;8.45;1.52;;;;;;;;;;5114145;27;20401;-73
2022/09/18 04:49:03;;;;;;;6.80;1.50;;;;;;;;;;5105580;27;20475;-72
2022/09/18 04:51:29;;;;;;;5.25;1.67;;;;;;;;;;5088295;28;20451;-73
2022/09/18 04:53:55;;;;;;;11.43;1.65;;;;;;;;;;5091850;27;21017;-73
2022/09/18 04:56:21;;;;;;;8.45;2.08;;;;;;;;;;5111405;27;20965;-73
2022/09/18 04:58:47;;;;;;;10.50;1.80;;;;;;;;;;5114064;28;20458;-72
2022/09/18 05:01:13;;;;;;;9.77;1.98;;;;;;;;;;5081080;27;20422;-72
2022/09/18 05:03:39;;;;;;;8.13;1.67;;;;;;;;;;5111507;28;20429;-73
2022/09/18 05:06:05;;;;;;;7.77;1.53;;;;;;;;;;5067467;28;20494;-73
2022/09/18 05:08:33;;;;;;;8.45;1.50;;;;;;;;;;5085145;28;20433;-72
2022/09/18 05:10:59;;;;;;;8.50;1.52;;;;;;;;;;5094738;28;20398;-72
2022/09/18 05:13:26;;;;;;;5.60;1.48;;;;;;;;;;5117294;27;20387;-72
2022/09/18 05:15:55;;;;;;;5.38;1.30;;;;;;;;;;5101401;27;20451;-73
2022/09/18 05:18:21;;;;;;;7.05;1.35;;;;;;;;;;5112469;27;20482;-73
2022/09/18 05:20:47;;;;;;;5.75;1.75;;;;;;;;;;5082039;28;20411;-72
2022/09/18 05:23:13;;;;;;;6.32;1.20;;;;;;;;;;5094777;27;20426;-73
2022/09/18 05:25:39;;;;;;;6.13;1.50;;;;;;;;;;5100979;27;20406;-72
2022/09/18 05:28:05;;;;;;;8.68;1.52;;;;;;;;;;5117999;27;20711;-74
2022/09/18 05:30:32;;;;;;;10.27;2.00;;;;;;;;;;5115809;27;20751;-74
2022/09/18 05:32:58;;;;;;;10.48;1.90;;;;;;;;;;5111613;27;20418;-73
2022/09/18 05:35:24;;;;;;;9.73;1.92;;;;;;;;;;5100691;27;20401;-79
2022/09/18 05:37:54;;;;;;;13.73;2.33;;;;;;;;;;5100478;27;20467;-79
2022/09/18 05:40:22;;;;;;;12.75;1.88;;;;;;;;;;5098377;27;20458;-79
2022/09/18 05:42:49;;;;;;;6.85;1.73;;;;;;;;;;5083707;27;20418;-78
2022/09/18 05:45:15;;;;;;;8.40;1.70;;;10.30;99.90;;;;;;5113170;27;20473;-78
2022/09/18 05:47:42;;;;;;;7.78;1.67;;;;;;;;;;5108059;28;20492;-78
2022/09/18 05:50:08;;;;;;;8.20;1.70;;;;;;;;;;5068983;28;20996;-79
2022/09/18 05:52:35;;;;;;;8.77;1.70;;;;;;;;;;5105434;27;20920;-78
2022/09/18 05:55:01;;;;;;;8.73;1.70;;;;;;;;;;5100342;27;20552;-79
2022/09/18 05:57:27;;;;;;;7.72;1.52;;;;;;;;;;5100624;27;20475;-79
2022/09/18 05:59:53;;;;;;;7.15;1.65;;;;;;;;;;5100879;28;20426;-78
2022/09/18 06:02:19;;;;;;;7.75;1.48;;;;;;;;;;5076484;28;20455;-79
2022/09/18 06:04:45;;;;;;;8.65;1.63;;;;;;;;;;5089995;28;20512;-79
2022/09/18 06:07:14;;;;;;;8.38;1.85;;;;;;;;;;5096215;28;20765;-79
2022/09/18 06:09:40;;;;;;;8.65;2.03;;;;;;;;;;5099624;27;20418;-75
2022/09/18 06:12:06;;;;;;;10.30;2.30;;;;;;;;;;5117090;27;20950;-75
2022/09/18 06:14:32;;;;;;;12.55;2.10;;;;;;;;;;5107366;27;20441;-75
2022/09/18 06:16:59;;;;;;;9.15;1.88;;;;;;;;;;5111902;27;20482;-80
2022/09/18 06:19:25;;;;;;;8.00;2.00;;;;;;;;;;5073487;28;20503;-78
2022/09/18 06:21:51;;;;;;;9.15;2.03;;;;;;;;;;5112645;27;20517;-78
2022/09/18 06:24:17;;;;;;;8.85;1.90;;;;;;;;;;5096164;27;20862;-78
2022/09/18 06:26:43;;;;;;;7.78;1.90;;;;;;;;;;5063235;28;20423;-78
2022/09/18 06:29:09;;;;;;;9.32;2.05;;;;;;;;;;5081158;28;20415;-79
2022/09/18 06:31:35;;;;;;;11.93;2.00;;;;;;;;;;5101424;27;20921;-79
2022/09/18 06:34:01;;;;;;;11.48;2.05;;;;;;;;;;5116877;27;20818;-79
2022/09/18 06:36:27;;;;;;;7.70;1.65;;;;;;;;;;5099563;27;20886;-78
2022/09/18 06:38:53;;;;;;;9.82;2.15;;;;;;;;;;5101975;28;20908;-79
2022/09/18 06:41:19;;;;;;;9.85;1.80;;;;;;;;;;5098101;27;20940;-79
2022/09/18 06:43:49;;;;;;;9.35;1.90;;;;;;;;;;5107706;28;20455;-79
2022/09/18 06:46:15;;;;;;;10.05;2.22;;;;;;;;;;5082664;27;20418;-79
2022/09/18 06:48:41;;;;;;;9.85;2.13;;;;;;;;;;5090112;28;20494;-79
2022/09/18 06:51:08;;;;;;;10.35;1.80;;;;;;;;;;5059306;28;20459;-84
2022/09/18 06:53:34;;;;;;;13.13;1.98;;;;;;;;;;5082925;27;20418;-79
2022/09/18 06:56:02;;;;;;;8.98;1.98;;;10.50;99.90;;;;;;5115865;27;20419;-78
2022/09/18 06:58:28;;;;;;;14.88;2.80;;;;;;;;;;5095454;28;20584;-79
2022/09/18 07:00:54;;;;;;;11.05;1.92;;;;;;;;;;5094397;27;20423;-80
2022/09/18 07:03:20;;;;;;;14.50;2.47;;;;;;;;;;5113190;27;20403;-81
2022/09/18 07:05:46;;;;;;;12.10;2.10;;;;;;;;;;5106081;27;20990;-79
2022/09/18 07:08:12;;;;;;;13.65;2.80;;;;;;;;;;5104213;28;20780;-79
2022/09/18 07:10:39;;;;;;;15.13;3.55;;;;;;;;;;5083944;28;20968;-79
2022/09/18 07:13:05;;;;;;;9.63;2.00;;;;;;;;;;5093528;28;20416;-79
2022/09/18 07:15:32;;;;;;;12.15;2.78;;;;;;;;;;5111369;27;20414;-81
2022/09/18 07:17:59;;;;;;;9.70;2.58;;;;;;;;;;5116100;27;20399;-79
2022/09/18 07:20:25;;;;;;;11.43;2.13;;;;;;;;;;5096338;28;20485;-79
2022/09/18 07:22:52;;;;;;;10.60;2.38;;;;;;;;;;5094087;28;20845;-82
2022/09/18 07:25:18;;;;;;;9.38;1.92;;;;;;;;;;5088766;27;20429;-83
2022/09/18 07:27:44;;;;;;;10.40;2.25;;;;;;;;;;5096233;27;20426;-83
2022/09/18 07:30:11;;;;;;;11.52;2.03;;;;;;;;;;5113147;27;20498;-83
2022/09/18 07:32:37;;;;;;;8.55;1.75;;;;;;;;;;5093885;27;20399;-83
2022/09/18 07:35:03;;;;;;;14.50;2.37;;;;;;;;;;5095998;28;20503;-83
2022/09/18 07:37:29;;;;;;;16.38;2.35;;;;;;;;;;5070106;28;20418;-82
2022/09/18 07:39:56;;;;;;;11.38;2.13;;;;;;;;;;5098384;28;20426;-82
2022/09/18 07:42:22;;;;;;;10.93;2.13;;;;;;;;;;5099390;27;20414;-82
2022/09/18 07:44:48;;;;;;;8.52;2.00;;;;;;;;;;5097576;27;20501;-82
2022/09/18 07:47:14;;;;;;;10.18;2.47;;;;;;;;;;5065104;27;20420;-81
2022/09/18 07:49:41;;;;;;;9.45;2.38;;;;;;;;;;5077307;28;20420;-82
2022/09/18 07:52:07;;;;;;;11.65;1.98;;;;;;;;;;5092065;28;20455;-78
2022/09/18 07:54:34;;;;;;;10.15;2.17;;;10.50;99.90;;;;;;5092360;27;20764;-77
2022/09/18 07:57:00;;;;;;;10.82;2.10;;;;;;;;;;5112707;27;20513;-78
2022/09/18 07:59:27;;;;;;;9.10;2.20;;;;;;;;;;5108888;27;20913;-79
2022/09/18 08:01:54;;;;;;;7.83;1.83;;;;;;;;;;5108349;27;20487;-77
2022/09/18 08:04:21;;;;;;;10.90;2.37;;;10.70;99.90;;;;;;5108413;28;20496;-78
2022/09/18 08:07:02;;;;;;;7.57;1.80;;;;;;;;;;5091520;28;20524;-79
2022/09/18 08:09:28;;;;;;;8.85;2.70;;;;;;;;;;5082864;27;20427;-80
2022/09/18 08:11:54;;;;;;;12.48;2.58;;;;;;;;;;5114620;27;20398;-78
2022/09/18 08:14:20;;;;;;;10.63;2.08;;;;;;;;;;5093119;28;20412;-77
2022/09/18 08:16:46;;;;;;;8.15;2.00;;;;;;;;;;5098267;27;20410;-79
2022/09/18 08:19:13;;;;;;;9.68;2.10;;;;;;;;;;5086798;28;20439;-79
2022/09/18 08:21:39;;;;;;;10.57;2.08;;;;;;;;;;5124647;27;20423;-79
2022/09/18 08:24:05;;;;;;;10.48;2.13;;;;;;;;;;5106269;28;20507;-78
2022/09/18 08:26:34;;;;;;;13.32;2.10;;;;;;;;;;5092332;28;20420;-79
2022/09/18 08:29:00;;;;;;;12.75;2.00;;;;;;;;;;5070785;28;20430;-79
2022/09/18 08:31:26;;;;;;;8.10;2.10;;;;;;;;;;5099903;28;20415;-80
2022/09/18 08:33:54;;;;;;;12.88;2.17;;;;;;;;;;5058599;28;20419;-80
2022/09/18 08:36:20;;;;;;;11.35;2.47;;;;;;;;;;5095442;28;20414;-81
2022/09/18 08:38:46;;;;;;;11.25;2.15;;;;;;;;;;5096469;28;20422;-80
2022/09/18 08:41:25;;;;;;;18.20;9.50;;;10.90;99.90;;;;;;5088800;28;20937;-79
2022/09/18 08:43:57;;;;;;;25.85;15.43;;;;;;;;;;5090133;28;20564;-79
2022/09/18 08:46:26;;;;;;;14.82;5.35;;;;;;;;;;5073340;28;20750;-79
2022/09/18 08:48:56;;;;;;;38.95;23.33;;;;;;;;;;5087351;28;20811;-79
2022/09/18 08:51:25;;;;;;;13.73;5.40;;;;;;;;;;5101397;28;20778;-79
2022/09/18 08:53:54;;;;;;;27.25;10.82;;;;;;;;;;5107228;28;21004;-79
2022/09/18 08:56:22;;;;;;;10.07;2.43;;;;;;;;;;5099830;28;20412;-79
2022/09/18 08:58:55;;;;;;;9.75;2.08;;;11.50;99.90;;;;;;5091656;28;20435;-79
2022/09/18 09:01:25;;;;;;;10.25;2.05;;;11.10;99.90;;;;;;5109126;28;20510;-79
2022/09/18 09:04:04;;;;;;;12.30;2.85;;;;;;;;;;5082725;28;20419;-80
2022/09/18 09:06:33;;;;;;;9.07;3.43;;;;;;;;;;5082686;28;20805;-74
2022/09/18 09:08:59;;;;;;;12.10;3.78;;;;;;;;;;5086593;28;20423;-74
2022/09/18 09:11:28;;;;;;;8.57;2.15;;;;;;;;;;5091754;28;20491;-74
2022/09/18 09:14:13;;;;;;;8.20;2.60;;;;;;;;;;5098430;28;20518;-74
2022/09/18 09:16:47;;;;;;;9.77;2.50;;;11.20;99.90;;;;;;5086174;28;20413;-74
2022/09/18 09:19:16;;;;;;;8.00;2.00;;;;;;;;;;5079635;28;20439;-74
2022/09/18 09:21:51;;;;;;;8.88;2.83;;;;;;;;;;5082162;28;20428;-74
2022/09/18 09:24:28;;;;;;;9.27;2.30;;;;;;;;;;5093679;28;20560;-74
2022/09/18 09:26:55;;;;;;;9.73;2.08;;;;;;;;;;5075907;28;20430;-74
2022/09/18 09:29:24;;;;;;;14.07;7.80;;;11.20;99.90;;;;;;5101147;28;20443;-74
2022/09/18 09:31:54;;;;;;;7.55;1.65;;;11.30;99.90;;;;;;5074218;28;20432;-74
2022/09/18 09:34:20;;;;;;;12.00;2.20;;;;;;;;;;5091443;28;20412;-74
2022/09/18 09:36:51;;;;;;;7.85;1.40;;;;;;;;;;5091923;28;20422;-74
2022/09/18 09:39:28;;;;;;;9.25;1.63;;;11.00;99.90;;;;;;5063246;28;20422;-76
2022/09/18 09:41:57;;;;;;;8.00;2.47;;;;;;;;;;5069477;28;20486;-75
2022/09/18 09:44:38;;;;;;;9.77;2.85;;;10.90;99.90;;;;;;5072980;28;20427;-75
2022/09/18 09:47:13;;;;;;;8.48;2.90;;;10.90;99.90;;;;;;5077591;28;20874;-75
2022/09/18 09:49:39;;;;;;;9.93;1.98;;;;;;;;;;5064177;28;20925;-76
2022/09/18 09:52:15;;;;;;;9.00;2.20;;;;;;;;;;5091147;28;20479;-75
2022/09/18 09:54:42;;;;;;;12.10;2.00;;;;;;;;;;5093725;28;20818;-75
2022/09/18 09:57:27;;;;;;;9.17;1.63;;;;;;;;;;5064684;28;20515;-75
2022/09/18 10:00:10;;;;;;;12.15;2.00;;;;;;;;;;5095682;28;21029;-76
2022/09/18 10:02:54;;;;;;;11.95;2.70;;;;;;;;;;5093880;28;20512;-81
2022/09/18 10:05:45;;;;;;;10.65;2.30;;;11.00;99.90;;;;;;5084446;28;20428;-81
2022/09/18 10:08:16;;;;;;;10.68;2.13;;;;;;;;;;5097131;28;20421;-80
2022/09/18 10:10:47;;;;;;;21.80;8.90;;;;;;;;;;5100545;28;20423;-79
2022/09/18 10:13:19;;;;;;;22.98;10.45;;;;;;;;;;5089499;28;20499;-81
2022/09/18 10:15:48;;;;;;;10.70;2.13;;;11.20;99.90;;;;;;5080914;28;20414;-80
2022/09/18 10:18:17;;;;;;;14.65;4.55;;;;;;;;;;5083273;28;20412;-80
2022/09/18 10:20:45;;;;;;;18.08;8.68;;;;;;;;;;5067080;28;20415;-79
2022/09/18 10:23:31;;;;;;;13.57;2.40;;;;;;;;;;5079981;28;20431;-80
2022/09/18 10:26:00;;;;;;;9.27;2.00;;;;;;;;;;5091551;28;20425;-80
2022/09/18 10:28:28;;;;;;;8.63;2.20;;;11.00;99.90;;;;;;5101292;28;20982;-80
2022/09/18 10:31:11;;;;;;;12.93;2.95;;;11.10;99.90;;;;;;5098849;28;20781;-80
2022/09/18 10:33:38;;;;;;;9.50;2.25;;;11.50;99.90;;;;;;5089097;28;20495;-80
2022/09/18 10:36:15;;;;;;;12.17;2.70;;;;;;;;;;5084939;28;20445;-80
2022/09/18 10:38:41;;;;;;;11.90;2.03;;;;;;;;;;5070445;28;20470;-80
2022/09/18 10:41:31;;;;;;;12.17;2.40;;;;;;;;;;5090746;28;20420;-81
2022/09/18 10:44:06;;;;;;;10.30;2.33;;;;;;;;;;5062195;28;20458;-80
2022/09/18 10:46:33;;;;;;;12.90;2.60;;;;;;;;;;5097356;28;20430;-81
2022/09/18 10:49:02;;;;;;;12.20;2.20;;;;;;;;;;5090774;28;20897;-80
2022/09/18 10:51:28;;;;;;;18.80;5.88;;;;;;;;;;5090197;28;20444;-80
2022/09/18 10:54:14;;;;;;;13.82;2.50;;;12.00;99.90;;;;;;5091557;28;20467;-80
2022/09/18 10:56:40;;;;;;;8.77;1.97;;;;;;;;;;5077220;28;20426;-80
2022/09/18 10:59:32;;;;;;;11.25;2.53;;;;;;;;;;5078092;28;20425;-80
2022/09/18 11:02:00;;;;;;;17.88;6.32;;;12.10;99.90;;;;;;5061724;28;20504;-80
2022/09/18 11:04:27;;;;;;;15.75;3.17;;;12.00;99.90;;;;;;5091359;28;20429;-81
2022/09/18 11:06:55;;;;;;;13.52;4.20;;;12.10;99.90;;;;;;5080050;28;20432;-80
2022/09/18 11:09:30;;;;;;;14.70;4.75;;;12.00;99.90;;;;;;5065698;28;20424;-80
2022/09/18 11:11:56;;;;;;;15.63;4.43;;;;;;;;;;5079742;28;20805;-80
2022/09/18 11:14:29;;;;;;;11.83;4.27;;;12.30;99.90;;;;;;5098881;28;20415;-82
2022/09/18 11:17:04;;;;;;;9.52;2.30;;;;;;;;;;5105030;28;20520;-81
2022/09/18 11:19:35;;;;;;;13.73;3.00;;;;;;;;;;5062838;28;20420;-82
2022/09/18 11:22:05;;;;;;;12.48;2.40;;;12.40;99.90;;;;;;5072041;28;20805;-82
2022/09/18 11:24:34;;;;;;;13.73;2.50;;;12.10;99.90;;;;;;5075009;28;20471;-82
2022/09/18 11:27:01;;;;;;;13.25;3.75;;;;;;;;;;5065461;28;20425;-81
2022/09/18 11:29:33;;;;;;;11.98;2.55;;;12.30;99.90;;;;;;5074313;28;20414;-80
2022/09/18 11:32:04;;;;;;;12.55;2.42;;;;;;;;;;5077529;28;20502;-80
2022/09/18 11:34:36;;;;;;;11.85;2.28;;;12.50;99.90;;;;;;5071152;28;20414;-80
2022/09/18 11:37:05;;;;;;;9.27;2.33;;;;;;;;;;5064735;28;20475;-80
2022/09/18 11:39:45;;;;;;;13.32;2.65;;;;;;;;;;5078694;28;20467;-79
2022/09/18 11:42:15;;;;;;;11.93;2.28;;;;;;;;;;5079599;28;20431;-80
2022/09/18 11:44:41;;;;;;;9.57;2.50;;;;;;;;;;5075959;28;20426;-80
2022/09/18 11:47:11;;;;;;;12.30;2.03;;;;;;;;;;5105709;28;20453;-80
2022/09/18 11:49:56;;;;;;;12.23;2.70;;;;;;;;;;5075733;28;20480;-79
2022/09/18 11:52:29;;;;;;;12.80;2.10;;;13.10;99.90;;;;;;5065574;28;20513;-80
2022/09/18 11:54:59;;;;;;;7.93;2.20;;;;;;;;;;5047493;28;20885;-79
2022/09/18 11:58:09;;;;;;;14.10;2.60;;;13.00;99.90;;;;;;5075016;28;20429;-80
2022/09/18 12:00:47;;;;;;;12.73;2.10;;;;;;;;;;5086093;28;20408;-79
2022/09/18 12:03:25;;;;;;;10.30;2.90;;;;;;;;;;5039085;28;20427;-80
2022/09/18 12:06:09;;;;;;;12.25;2.10;;;13.30;99.90;;;;;;5076274;28;20959;-79
2022/09/18 12:08:35;;;;;;;13.80;2.15;;;;;;;;;;5077065;28;20424;-80
2022/09/18 12:11:11;;;;;;;11.00;2.33;;;;;;;;;;5049132;28;20499;-80
2022/09/18 12:13:52;;;;;;;9.48;2.03;;;;;;;;;;5061328;28;20937;-79
2022/09/18 12:16:21;;;;;;;13.25;2.75;;;;;;;;;;5057485;28;20402;-80
2022/09/18 12:19:07;;;;;;;16.67;4.67;;;13.40;99.90;;;;;;5070097;28;20419;-80
2022/09/18 12:21:50;;;;;;;14.07;4.90;;;13.60;99.90;;;;;;5072979;28;20427;-80
2022/09/18 12:24:17;;;;;;;18.27;5.70;;;13.70;99.90;;;;;;5082868;27;20527;-80
2022/09/18 12:27:00;;;;;;;9.80;2.92;;;13.40;99.90;;;;;;5106046;27;20448;-79
2022/09/18 12:29:39;;;;;;;8.48;1.65;;;13.80;99.90;;;;;;5087019;27;20430;-80
2022/09/18 12:32:24;;;;;;;8.48;1.67;;;;;;;;;;5101009;27;20898;-79
2022/09/18 12:34:50;;;;;;;7.97;1.50;;;;;;;;;;5086697;28;20430;-80
2022/09/18 12:37:34;;;;;;;7.75;1.95;;;;;;;;;;5090826;28;20423;-80
2022/09/18 12:40:22;;;;;;;8.43;1.90;;;;;;;;;;5089698;28;20423;-80
2022/09/18 12:43:13;;;;;;;7.45;1.95;;;;;;;;;;5104909;28;20423;-79
2022/09/18 12:45:42;;;;;;;12.90;2.08;;;;;;;;;;5089475;28;20764;-79
2022/09/18 12:48:11;;;;;;;11.40;1.90;;;;;;;;;;5098315;27;20762;-79
2022/09/18 12:50:40;;;;;;;6.67;1.40;;;;;;;;;;5079430;27;20432;-79
2022/09/18 12:53:35;;;;;;;8.18;1.60;;;;;;;;;;5083355;28;20747;-79
2022/09/18 12:56:01;;;;;;;5.35;1.40;;;;;;;;;;5070275;28;20396;-79
2022/09/18 12:58:37;;;;;;;7.57;1.30;;;;;;;;;;5085661;28;20412;-80
2022/09/18 13:01:09;;;;;;;10.90;2.20;;;;;;;;;;5090729;28;20847;-80
2022/09/18 13:03:37;;;;;;;8.13;1.80;;;;;;;;;;5070736;28;20488;-80
2022/09/18 13:06:14;;;;;;;6.80;1.58;;;12.80;99.90;;;;;;5110094;27;20481;-79
2022/09/18 13:08:50;;;;;;;7.43;1.40;;;;;;;;;;5077066;28;20429;-79
2022/09/18 13:11:22;;;;;;;9.40;2.20;;;;;;;;;;5090924;28;20419;-79
2022/09/18 13:13:51;;;;;;;6.65;1.77;;;;;;;;;;5095611;28;20416;-79
2022/09/18 13:16:20;;;;;;;8.75;1.52;;;;;;;;;;5091598;28;20954;-79
2022/09/18 13:18:55;;;;;;;7.33;1.90;;;;;;;;;;5074156;28;20417;-79
2022/09/18 13:21:33;;;;;;;8.15;1.92;;;;;;;;;;5095417;28;20459;-79
2022/09/18 13:24:00;;;;;;;8.73;2.20;;;;;;;;;;5090635;28;20416;-79
2022/09/18 13:26:29;;;;;;;11.10;2.10;;;13.00;99.90;;;;;;5092369;28;20428;-78
2022/09/18 13:28:55;;;;;;;8.85;2.20;;;;;;;;;;5100194;28;20480;-78
2022/09/18 13:31:29;;;;;;;9.43;2.15;;;13.10;99.90;;;;;;5103111;28;20423;-79
2022/09/18 13:34:00;;;;;;;7.38;1.98;;;13.40;99.90;;;;;;5097624;27;20414;-78
2022/09/18 13:36:29;;;;;;;7.53;2.17;;;;;;;;;;5099941;28;20911;-79
2022/09/18 13:38:57;;;;;;;9.10;1.80;;;;;;;;;;5116071;27;20404;-78
2022/09/18 13:41:23;;;;;;;6.18;1.45;;;;;;;;;;5105636;27;20418;-79
2022/09/18 13:43:52;;;;;;;7.93;1.43;;;;;;;;;;5093728;27;20455;-78
2022/09/18 13:46:31;;;;;;;8.95;1.58;;;;;;;;;;5093416;27;20751;-78
2022/09/18 13:49:02;;;;;;;7.00;1.38;;;13.50;99.90;;;;;;5099179;28;20453;-78
2022/09/18 13:51:36;;;;;;;6.97;1.60;;;;;;;;;;5094361;28;20405;-78
2022/09/18 13:54:19;;;;;;;10.45;1.70;;;13.70;99.90;;;;;;5089769;28;20398;-79
2022/09/18 13:57:08;;;;;;;10.13;1.80;;;;;;;;;;5082784;27;20418;-79
2022/09/18 13:59:43;;;;;;;12.18;2.13;;;;;;;;;;5090673;27;20422;-79
2022/09/18 14:02:36;;;;;;;12.80;2.00;;;13.90;99.90;;;;;;5101921;28;20420;-79
2022/09/18 14:05:31;;;;;;;7.70;1.63;;;14.00;99.90;;;;;;5096773;27;20422;-78
2022/09/18 14:08:03;;;;;;;10.07;1.95;;;;;;;;;;5096829;28;21718;-78
2022/09/18 14:10:29;;;;;;;8.57;1.88;;;;;;;;;;5073521;28;20425;-78
2022/09/18 14:13:23;;;;;;;8.63;1.70;;;13.80;99.90;;;;;;5062755;28;21068;-78
2022/09/18 14:15:55;;;;;;;12.90;2.17;;;;;;;;;;5078323;27;20894;-79
2022/09/18 14:18:27;;;;;;;9.80;2.47;;;13.90;99.90;;;;;;5084064;28;20414;-80
2022/09/18 14:21:18;;;;;;;9.13;1.98;;;14.20;99.90;;;;;;5098719;27;20475;-80
2022/09/18 14:23:44;;;;;;;11.25;2.08;;;;;;;;;;5075224;28;20418;-78
2022/09/18 14:26:33;;;;;;;9.77;2.27;;;;;;;;;;5092924;27;20474;-81
2022/09/18 14:29:00;;;;;;;10.93;2.03;;;;;;;;;;5089377;28;20500;-82